Terminal Aerodrome Forecast
Issued by NWS Newport/Morehead City, NC

Home | Current Version | Previous Version | Text Only | Print | Product List | Glossary Off
Versions: 1 2 3 4 5 6 7 8 9 10 11 12 13 14 15 16 17 18 19 20 21

000
FTUS42 KMHX 030809 AAB
TAFEWN
TAF AMD
KEWN 030809Z 0308/0406 VRB05KT P6SM VCSH SCT020 BKN040
      TEMPO 0308/0309 3SM -RA BR BKN020
     FM031000 VRB03KT 4SM BR SCT050
     FM031300 29005KT P6SM SCT050
     FM031800 28006KT P6SM VCSH BKN050
     FM032300 19004KT P6SM SCT050=

USA.gov is the U.S. government's official web portal to all federal, state and local government web resources and services.